Goodyears Bar, California
Current Conditions -  °F | °C
As of 10:52 AM on Tuesday 27 Jan 2015 (Local Time) from KBLU Reporting Station
Overcast Overcast  
Wind Chill: 41°   Ceiling: 7000
Heat Index: 41°   Visibility: 10mi
Dew Point: 33°   Wind: 3mph
Humidity: 73%   Direction: 100°E
Pressure: 30.28"   Gusts: NA
Location:  39.54°N, 120.88°W
Report Text: KBLU 271852Z AUTO 10003KT 10SM OVC070 05/01 A3028 RMK AO2 SLP225 T00500006
Loading
Personal Weather Stations






























Interactive Weather Map New forecast layout! Learn more

10-Day Weather Forecast

Advertisements
Track Severe Weather on mobile